createdAt,value
2023-05-18T00:02:18.471Z,4.80
2023-05-18T00:04:45.992Z,4.93
2023-05-18T00:07:14.867Z,4.30
2023-05-18T00:09:42.213Z,3.42
2023-05-18T00:12:12.440Z,3.95
2023-05-18T00:14:39.917Z,4.43
2023-05-18T00:17:07.221Z,4.10
2023-05-18T00:19:34.654Z,3.08
2023-05-18T00:22:02.406Z,4.13
2023-05-18T00:24:29.699Z,4.50
2023-05-18T00:26:57.049Z,2.97
2023-05-18T00:29:27.498Z,4.10
2023-05-18T00:31:54.916Z,4.22
2023-05-18T00:34:23.549Z,3.50
2023-05-18T00:36:51.061Z,4.55
2023-05-18T00:39:18.416Z,4.57
2023-05-18T00:41:45.694Z,4.20
2023-05-18T00:44:13.214Z,3.70
2023-05-18T00:46:44.267Z,4.50
2023-05-18T00:49:13.861Z,3.90
2023-05-18T00:51:42.020Z,3.10
2023-05-18T00:54:10.382Z,4.40
2023-05-18T00:56:43.419Z,4.00
2023-05-18T00:59:11.939Z,5.00
2023-05-18T01:01:44.057Z,4.57
2023-05-18T01:04:14.566Z,3.92
2023-05-18T01:06:43.051Z,4.10
2023-05-18T01:09:12.564Z,4.13
2023-05-18T01:12:34.381Z,4.40
2023-05-18T01:15:42.102Z,4.20
2023-05-18T01:18:29.178Z,4.10
2023-05-18T01:21:49.623Z,3.53
2023-05-18T01:24:43.321Z,4.10
2023-05-18T01:27:17.474Z,4.47
2023-05-18T01:29:48.749Z,4.50
2023-05-18T01:32:22.402Z,4.78
2023-05-18T01:34:50.633Z,3.33
2023-05-18T01:37:17.931Z,4.88
2023-05-18T01:39:45.229Z,3.75
2023-05-18T01:42:21.157Z,3.50
2023-05-18T01:44:59.350Z,4.00
2023-05-18T01:47:31.991Z,4.05
2023-05-18T01:50:37.939Z,3.95
2023-05-18T01:53:32.787Z,3.58
2023-05-18T01:56:02.455Z,3.78
2023-05-18T01:58:30.134Z,3.47
2023-05-18T02:00:57.604Z,3.92
2023-05-18T02:03:24.973Z,4.20
2023-05-18T02:05:52.505Z,3.63
2023-05-18T02:08:21.180Z,4.20
2023-05-18T02:10:49.764Z,4.30
2023-05-18T02:13:17.061Z,4.20
2023-05-18T02:15:45.052Z,3.53
2023-05-18T02:18:12.513Z,3.78
2023-05-18T02:20:41.281Z,4.00
2023-05-18T02:23:08.639Z,3.55
2023-05-18T02:25:37.248Z,4.65
2023-05-18T02:28:04.926Z,2.90
2023-05-18T02:30:33.421Z,3.75
2023-05-18T02:35:29.876Z,4.60
2023-05-18T02:37:58.743Z,4.30
2023-05-18T02:40:26.271Z,4.00
2023-05-18T02:42:53.553Z,3.53
2023-05-18T02:45:21.616Z,4.00
2023-05-18T02:47:48.915Z,4.78
2023-05-18T02:50:16.670Z,4.25
2023-05-18T02:52:45.539Z,3.70
2023-05-18T02:55:13.973Z,3.75
2023-05-18T03:00:16.875Z,3.70
2023-05-18T03:02:44.523Z,4.00
2023-05-18T03:05:12.032Z,4.22
2023-05-18T03:07:43.349Z,3.42
2023-05-18T03:10:10.774Z,4.18
2023-05-18T03:12:38.077Z,4.18
2023-05-18T03:15:05.956Z,3.70
2023-05-18T03:17:33.926Z,4.20
2023-05-18T03:20:06.833Z,3.50
2023-05-18T03:22:34.345Z,3.15
2023-05-18T03:25:02.481Z,3.70
2023-05-18T03:27:30.797Z,3.75
2023-05-18T03:32:25.571Z,4.35
2023-05-18T03:34:53.449Z,3.23
2023-05-18T03:37:21.710Z,3.70
2023-05-18T03:39:49.225Z,3.33
2023-05-18T03:42:16.680Z,3.70
2023-05-18T03:44:44.594Z,3.67
2023-05-18T03:47:11.900Z,4.03
2023-05-18T03:49:39.304Z,4.10
2023-05-18T03:52:09.915Z,3.60
2023-05-18T03:54:37.595Z,3.72
2023-05-18T03:57:05.069Z,3.83
2023-05-18T03:59:32.409Z,4.78
2023-05-18T04:02:00.335Z,3.72
2023-05-18T04:04:27.790Z,3.72
2023-05-18T04:06:55.916Z,3.78
2023-05-18T04:09:23.965Z,3.67
2023-05-18T04:11:51.457Z,3.95
2023-05-18T04:14:21.036Z,3.58
2023-05-18T04:16:48.467Z,4.30
2023-05-18T04:19:16.234Z,3.80
2023-05-18T04:21:44.814Z,4.60
2023-05-18T04:24:14.615Z,4.07
2023-05-18T04:26:42.644Z,3.83
2023-05-18T04:29:13.579Z,2.85
2023-05-18T04:31:42.979Z,3.85
2023-05-18T04:34:13.166Z,3.58
2023-05-18T04:36:42.870Z,3.17
2023-05-18T04:39:11.196Z,3.55
2023-05-18T04:41:43.576Z,4.63
2023-05-18T04:44:11.049Z,3.70
2023-05-18T04:46:42.945Z,3.80
2023-05-18T04:49:14.220Z,4.32
2023-05-18T04:51:42.264Z,4.07
2023-05-18T04:55:08.105Z,4.63
2023-05-18T04:57:36.011Z,3.92
2023-05-18T05:00:05.892Z,3.40
2023-05-18T05:02:33.303Z,4.45
2023-05-18T05:05:00.787Z,4.18
2023-05-18T05:07:28.144Z,3.05
2023-05-18T05:09:55.985Z,4.03
2023-05-18T05:12:23.587Z,3.30
2023-05-18T05:14:52.432Z,3.88
2023-05-18T05:17:19.750Z,3.80
2023-05-18T05:19:47.385Z,3.30
2023-05-18T05:22:14.925Z,3.90
2023-05-18T05:24:42.569Z,3.53
2023-05-18T05:27:14.812Z,4.05
2023-05-18T05:29:43.147Z,3.22
2023-05-18T05:32:10.543Z,3.67
2023-05-18T05:34:37.871Z,2.92
2023-05-18T05:37:05.987Z,3.72
2023-05-18T05:39:41.053Z,4.22
2023-05-18T05:42:11.127Z,3.80
2023-05-18T05:44:40.952Z,3.42
2023-05-18T05:47:09.950Z,4.07
2023-05-18T05:49:37.404Z,4.35
2023-05-18T05:54:34.828Z,4.00
2023-05-18T05:57:02.131Z,4.93
2023-05-18T05:59:33.587Z,4.72
2023-05-18T06:02:03.421Z,5.75
2023-05-18T06:04:31.972Z,4.95
2023-05-18T06:06:59.466Z,4.45
2023-05-18T06:09:27.019Z,5.25
2023-05-18T06:11:54.855Z,3.77
2023-05-18T06:14:22.295Z,4.35
2023-05-18T06:16:55.183Z,5.13
2023-05-18T06:19:22.673Z,4.75
2023-05-18T06:21:50.955Z,5.70
2023-05-18T06:24:19.940Z,5.72
2023-05-18T06:26:50.118Z,5.85
2023-05-18T06:29:24.780Z,5.65
2023-05-18T06:31:52.114Z,5.70
2023-05-18T06:34:19.423Z,5.65
2023-05-18T06:36:47.858Z,6.22
2023-05-18T06:41:43.463Z,6.97
2023-05-18T06:46:42.689Z,6.95
2023-05-18T06:49:10.059Z,6.38
2023-05-18T06:51:37.402Z,6.55
2023-05-18T06:54:04.860Z,7.80
2023-05-18T06:56:34.803Z,7.53
2023-05-18T06:59:04.286Z,8.13
2023-05-18T07:01:34.193Z,7.10
2023-05-18T07:04:04.693Z,7.72
2023-05-18T07:06:36.959Z,7.55
2023-05-18T07:14:19.912Z,9.23
2023-05-18T07:16:50.551Z,9.23
2023-05-18T07:19:20.387Z,9.60
2023-05-18T07:21:47.952Z,9.27
2023-05-18T07:24:20.052Z,9.20
2023-05-18T07:27:23.217Z,9.00
2023-05-18T07:29:56.020Z,10.75
2023-05-18T07:32:23.505Z,10.10
2023-05-18T07:34:53.176Z,11.15
2023-05-18T07:37:20.594Z,10.48
2023-05-18T07:39:54.717Z,10.85
2023-05-18T07:42:24.730Z,10.30
2023-05-18T07:44:52.371Z,12.15
2023-05-18T07:47:21.595Z,11.82
2023-05-18T07:49:48.977Z,11.13
2023-05-18T07:52:16.480Z,10.80
2023-05-18T07:54:44.383Z,11.05
2023-05-18T07:57:11.696Z,11.85
2023-05-18T07:59:39.412Z,11.10
2023-05-18T08:02:20.000Z,12.70
2023-05-18T08:04:48.382Z,12.32
2023-05-18T08:07:18.495Z,12.57
2023-05-18T08:09:52.778Z,11.57
2023-05-18T08:12:23.371Z,12.27
2023-05-18T08:15:05.128Z,12.52
2023-05-18T08:17:32.484Z,12.98
2023-05-18T08:20:04.913Z,13.00
2023-05-18T08:22:35.836Z,11.48
2023-05-18T08:25:04.242Z,13.82
2023-05-18T08:27:31.904Z,12.63
2023-05-18T08:29:59.219Z,13.53
2023-05-18T08:32:26.863Z,12.98
2023-05-18T08:34:54.362Z,14.55
2023-05-18T08:37:29.635Z,12.88
2023-05-18T08:39:57.568Z,12.80
2023-05-18T08:42:50.357Z,12.43
2023-05-18T08:45:36.389Z,13.48
2023-05-18T08:48:05.938Z,12.68
2023-05-18T08:50:36.901Z,11.20
2023-05-18T08:53:09.593Z,13.63
2023-05-18T08:55:37.980Z,13.75
2023-05-18T08:58:09.337Z,13.55
2023-05-18T09:00:37.387Z,12.25
2023-05-18T09:03:06.409Z,12.82
2023-05-18T09:05:34.246Z,12.93
2023-05-18T09:08:03.791Z,12.00
2023-05-18T09:10:34.194Z,12.35
2023-05-18T09:13:09.296Z,12.40
2023-05-18T09:15:36.777Z,13.07
2023-05-18T09:18:04.433Z,12.98
2023-05-18T09:20:32.781Z,13.32
2023-05-18T09:23:06.542Z,11.32
2023-05-18T09:25:35.262Z,11.75
2023-05-18T09:28:04.583Z,12.07
2023-05-18T09:30:42.328Z,11.50
2023-05-18T09:33:23.766Z,11.40
2023-05-18T09:35:52.825Z,11.20
2023-05-18T09:38:23.357Z,11.00
2023-05-18T09:40:51.558Z,10.45
2023-05-18T09:43:19.261Z,11.10
2023-05-18T09:45:50.027Z,10.57
2023-05-18T09:48:18.118Z,9.77
2023-05-18T09:50:47.647Z,11.70
2023-05-18T09:53:15.802Z,9.90
2023-05-18T09:55:50.420Z,10.13
2023-05-18T09:58:18.032Z,10.77
2023-05-18T10:00:52.078Z,10.20
2023-05-18T10:03:22.541Z,10.18
2023-05-18T10:05:51.553Z,9.88
2023-05-18T10:08:18.910Z,8.98
2023-05-18T10:10:49.857Z,9.35
2023-05-18T10:13:19.597Z,10.02
2023-05-18T10:15:56.935Z,9.40
2023-05-18T10:18:27.098Z,8.68
2023-05-18T10:21:00.084Z,9.13
2023-05-18T10:23:33.320Z,7.80
2023-05-18T10:26:01.317Z,8.23
2023-05-18T10:28:41.401Z,7.35
2023-05-18T10:31:09.785Z,8.48
2023-05-18T10:33:38.746Z,8.77
2023-05-18T10:36:09.126Z,8.30
2023-05-18T10:38:43.584Z,9.25
2023-05-18T10:44:17.902Z,7.90
2023-05-18T10:46:49.097Z,7.45
2023-05-18T10:49:26.430Z,7.72
2023-05-18T10:51:55.321Z,8.07
2023-05-18T10:54:25.352Z,8.05
2023-05-18T10:56:54.131Z,8.85
2023-05-18T10:59:23.449Z,8.45
2023-05-18T11:01:54.050Z,7.30
2023-05-18T11:04:29.838Z,8.18
2023-05-18T11:07:02.476Z,8.13
2023-05-18T11:09:30.711Z,7.63
2023-05-18T11:12:00.374Z,7.97
2023-05-18T11:14:31.417Z,8.05
2023-05-18T11:17:17.982Z,5.43
2023-05-18T11:20:06.906Z,8.48
2023-05-18T11:22:51.580Z,7.85
2023-05-18T11:25:27.792Z,6.90
2023-05-18T11:28:02.540Z,7.55
2023-05-18T11:30:33.937Z,8.27
2023-05-18T11:33:19.155Z,8.57
2023-05-18T11:36:13.625Z,6.53
2023-05-18T11:39:02.876Z,7.80
2023-05-18T11:41:40.045Z,8.07
2023-05-18T11:44:22.301Z,7.05
2023-05-18T11:47:08.890Z,9.57
2023-05-18T11:49:47.928Z,8.55
2023-05-18T11:52:28.569Z,8.10
2023-05-18T11:55:01.158Z,8.93
2023-05-18T11:57:48.000Z,8.93
2023-05-18T12:00:17.155Z,8.82
2023-05-18T12:02:50.367Z,8.90
2023-05-18T12:05:19.576Z,8.35
2023-05-18T12:10:24.439Z,9.50
2023-05-18T12:12:55.399Z,10.98
2023-05-18T12:15:30.352Z,9.43
2023-05-18T12:17:59.576Z,8.95
2023-05-18T12:20:44.523Z,8.75
2023-05-18T12:23:11.852Z,8.40
2023-05-18T12:25:39.302Z,9.82
2023-05-18T12:28:07.969Z,8.68
2023-05-18T12:30:36.316Z,8.90
2023-05-18T12:33:04.568Z,8.27
2023-05-18T12:35:33.944Z,8.25
2023-05-18T12:38:02.163Z,8.93
2023-05-18T12:43:39.272Z,8.93
2023-05-18T12:46:10.996Z,9.02
2023-05-18T12:48:47.134Z,8.82
2023-05-18T12:51:20.883Z,8.23
2023-05-18T12:53:51.273Z,8.15
2023-05-18T12:56:22.800Z,9.20
2023-05-18T12:59:10.687Z,9.05
2023-05-18T13:01:49.482Z,9.85
2023-05-18T13:04:17.264Z,7.63
2023-05-18T13:06:45.158Z,9.43
2023-05-18T13:09:19.751Z,8.52
2023-05-18T13:12:03.716Z,14.85
2023-05-18T13:14:38.508Z,29.35
2023-05-18T13:17:06.031Z,13.45
2023-05-18T13:19:39.618Z,9.03
2023-05-18T13:22:08.333Z,7.97
2023-05-18T13:24:35.656Z,10.82
2023-05-18T13:27:02.969Z,18.00
2023-05-18T13:29:30.347Z,8.23
2023-05-18T13:31:57.706Z,8.45
2023-05-18T13:34:25.069Z,7.65
2023-05-18T13:36:52.341Z,8.25
2023-05-18T13:39:22.826Z,10.88
2023-05-18T13:41:53.106Z,8.02
2023-05-18T13:44:20.448Z,8.48
2023-05-18T13:46:47.764Z,8.68
2023-05-18T13:49:16.788Z,7.43
2023-05-18T13:51:44.038Z,6.78
2023-05-18T13:54:11.339Z,7.28
2023-05-18T13:56:40.813Z,7.60
2023-05-18T13:59:10.535Z,10.88
2023-05-18T14:01:37.847Z,12.00
2023-05-18T14:04:08.290Z,7.18
2023-05-18T14:06:37.467Z,9.57
2023-05-18T14:09:06.019Z,10.73
2023-05-18T14:11:38.359Z,6.85
2023-05-18T14:14:05.699Z,7.70
2023-05-18T14:16:41.161Z,6.80
2023-05-18T14:19:10.460Z,5.50
2023-05-18T14:21:37.928Z,6.53
2023-05-18T14:24:09.967Z,5.95
2023-05-18T14:26:37.679Z,5.28
2023-05-18T14:29:08.099Z,5.03
2023-05-18T14:31:35.541Z,7.53
2023-05-18T14:34:03.223Z,13.90
2023-05-18T14:36:31.109Z,14.40
2023-05-18T14:38:58.464Z,9.63
2023-05-18T14:43:55.747Z,20.10
2023-05-18T14:46:23.205Z,6.18
2023-05-18T14:48:52.001Z,8.15
2023-05-18T14:51:19.553Z,5.50
2023-05-18T14:53:56.117Z,5.00
2023-05-18T14:56:29.372Z,5.13
2023-05-18T14:59:51.905Z,7.53
2023-05-18T15:02:26.630Z,6.57
2023-05-18T15:05:13.352Z,4.63
2023-05-18T15:07:43.425Z,5.18
2023-05-18T15:10:12.311Z,5.15
2023-05-18T15:12:41.246Z,5.05
2023-05-18T15:15:14.375Z,5.30
2023-05-18T15:17:41.909Z,20.05
2023-05-18T15:20:12.546Z,5.07
2023-05-18T15:22:41.475Z,4.88
2023-05-18T15:25:09.334Z,5.43
2023-05-18T15:27:37.686Z,4.65
2023-05-18T15:30:11.755Z,14.48
2023-05-18T15:33:08.557Z,6.88
2023-05-18T15:35:38.875Z,5.47
2023-05-18T15:38:09.159Z,4.65
2023-05-18T15:40:36.852Z,8.10
2023-05-18T15:43:07.141Z,6.53
2023-05-18T15:45:59.927Z,15.40
2023-05-18T15:48:27.266Z,4.38
2023-05-18T15:50:59.048Z,5.05
2023-05-18T15:57:07.127Z,4.63
2023-05-18T15:59:36.777Z,3.97
2023-05-18T16:02:07.243Z,4.10
2023-05-18T16:04:34.673Z,3.60
2023-05-18T16:07:05.085Z,7.85
2023-05-18T16:09:32.517Z,5.15
2023-05-18T16:11:59.813Z,4.60
2023-05-18T16:14:27.105Z,4.13
2023-05-18T16:16:54.683Z,5.30
2023-05-18T16:19:22.157Z,3.37
2023-05-18T16:21:49.602Z,3.90
2023-05-18T16:24:17.150Z,3.33
2023-05-18T16:26:44.553Z,4.00
2023-05-18T16:29:12.004Z,3.58
2023-05-18T16:31:53.875Z,3.60
2023-05-18T16:34:59.474Z,3.45
2023-05-18T16:37:40.002Z,3.83
2023-05-18T16:40:16.574Z,4.72
2023-05-18T16:42:47.358Z,4.07
2023-05-18T16:45:20.442Z,3.80
2023-05-18T16:48:04.231Z,4.57
2023-05-18T16:50:52.316Z,3.85
2023-05-18T16:53:22.458Z,4.05
2023-05-18T16:55:52.782Z,3.80
2023-05-18T16:58:23.442Z,4.00
2023-05-18T17:00:50.733Z,3.50
2023-05-18T17:03:20.598Z,3.60
2023-05-18T17:05:48.631Z,4.50
2023-05-18T17:08:16.194Z,3.38
2023-05-18T17:10:43.454Z,4.03
2023-05-18T17:13:26.050Z,3.70
2023-05-18T17:15:53.390Z,3.95
2023-05-18T17:18:33.806Z,4.55
2023-05-18T17:21:21.083Z,3.75
2023-05-18T17:23:48.503Z,4.28
2023-05-18T17:26:16.282Z,3.85
2023-05-18T17:28:43.601Z,3.42
2023-05-18T17:31:10.966Z,4.38
2023-05-18T17:33:38.271Z,3.72
2023-05-18T17:36:06.024Z,4.18
2023-05-18T17:38:33.406Z,4.75
2023-05-18T17:41:01.453Z,3.58
2023-05-18T17:43:28.762Z,5.63
2023-05-18T17:45:56.125Z,5.15
2023-05-18T17:48:23.482Z,4.22
2023-05-18T17:51:16.780Z,5.00
2023-05-18T17:53:46.559Z,4.28
2023-05-18T17:56:46.007Z,3.60
2023-05-18T17:59:26.196Z,4.30
2023-05-18T18:01:56.608Z,4.72
2023-05-18T18:04:37.887Z,4.28
2023-05-18T18:07:05.723Z,4.22
2023-05-18T18:09:39.194Z,5.53
2023-05-18T18:12:06.889Z,4.45
2023-05-18T18:14:34.409Z,4.18
2023-05-18T18:17:01.793Z,4.40
2023-05-18T18:19:29.423Z,4.80
2023-05-18T18:21:57.055Z,4.93
2023-05-18T18:24:25.824Z,4.45
2023-05-18T18:26:53.193Z,4.45
2023-05-18T18:29:20.497Z,4.30
2023-05-18T18:31:47.960Z,3.97
2023-05-18T18:34:15.263Z,5.28
2023-05-18T18:36:42.589Z,4.75
2023-05-18T18:39:10.764Z,4.40
2023-05-18T18:41:38.083Z,4.68
2023-05-18T18:44:05.710Z,4.72
2023-05-18T18:46:33.391Z,4.77
2023-05-18T18:49:00.811Z,4.65
2023-05-18T18:51:28.255Z,4.68
2023-05-18T18:53:56.027Z,4.88
2023-05-18T18:56:24.899Z,5.05
2023-05-18T18:58:52.270Z,5.55
2023-05-18T19:01:19.708Z,5.50
2023-05-18T19:03:47.067Z,5.13
2023-05-18T19:06:14.930Z,5.43
2023-05-18T19:08:47.114Z,5.30
2023-05-18T19:11:14.777Z,5.78
2023-05-18T19:13:42.072Z,5.63
2023-05-18T19:16:09.514Z,5.75
2023-05-18T19:18:36.923Z,5.85
2023-05-18T19:21:04.310Z,5.82
2023-05-18T19:23:31.599Z,5.00
2023-05-18T19:25:59.633Z,6.65
2023-05-18T19:28:27.012Z,5.95
2023-05-18T19:30:55.893Z,6.38
2023-05-18T19:33:23.262Z,6.22
2023-05-18T19:35:51.780Z,6.72
2023-05-18T19:40:46.948Z,5.97
2023-05-18T19:43:14.300Z,6.90
2023-05-18T19:45:41.865Z,7.15
2023-05-18T19:48:09.254Z,7.13
2023-05-18T19:50:36.909Z,7.10
2023-05-18T19:53:04.285Z,7.07
2023-05-18T19:55:31.950Z,6.18
2023-05-18T19:58:06.597Z,7.38
2023-05-18T20:00:34.245Z,7.18
2023-05-18T20:03:05.442Z,7.03
2023-05-18T20:05:33.546Z,7.45
2023-05-18T20:08:03.022Z,7.05
2023-05-18T20:10:36.225Z,6.95
2023-05-18T20:13:04.134Z,7.75
2023-05-18T20:15:36.684Z,6.88
2023-05-18T20:18:07.400Z,7.88
2023-05-18T20:20:36.326Z,7.45
2023-05-18T20:23:05.073Z,6.82
2023-05-18T20:25:35.151Z,6.47
2023-05-18T20:28:07.079Z,7.68
2023-05-18T20:30:46.963Z,7.70
2023-05-18T20:33:15.839Z,7.00
2023-05-18T20:35:44.130Z,6.18
2023-05-18T20:38:14.829Z,7.85
2023-05-18T20:40:42.170Z,6.38
2023-05-18T20:43:11.565Z,7.07
2023-05-18T20:45:41.509Z,7.38
2023-05-18T20:48:09.331Z,7.00
2023-05-18T20:50:37.074Z,7.10
2023-05-18T20:53:08.142Z,8.60
2023-05-18T20:55:40.479Z,8.18
2023-05-18T20:58:10.686Z,8.00
2023-05-18T21:00:38.340Z,7.70
2023-05-18T21:03:05.942Z,6.97
2023-05-18T21:05:34.826Z,8.20
2023-05-18T21:08:03.470Z,7.43
2023-05-18T21:12:59.650Z,7.25
2023-05-18T21:15:27.022Z,8.57
2023-05-18T21:17:55.023Z,8.02
2023-05-18T21:20:26.026Z,7.10
2023-05-18T21:22:53.472Z,7.15
2023-05-18T21:25:21.167Z,7.35
2023-05-18T21:27:48.462Z,7.40
2023-05-18T21:30:17.052Z,7.10
2023-05-18T21:32:44.814Z,6.82
2023-05-18T21:35:12.208Z,7.28
2023-05-18T21:37:39.551Z,7.30
2023-05-18T21:40:10.395Z,6.90
2023-05-18T21:42:44.988Z,7.63
2023-05-18T21:45:13.584Z,7.35
2023-05-18T21:50:08.826Z,7.03
2023-05-18T21:52:36.129Z,7.05
2023-05-18T21:55:03.705Z,7.28
2023-05-18T21:57:34.929Z,6.63
2023-05-18T22:00:04.529Z,6.78
2023-05-18T22:02:33.293Z,6.88
2023-05-18T22:05:00.764Z,7.15
2023-05-18T22:07:28.118Z,7.30
2023-05-18T22:09:55.753Z,6.45
2023-05-18T22:12:23.681Z,6.25
2023-05-18T22:14:50.934Z,7.40
2023-05-18T22:17:18.593Z,6.45
2023-05-18T22:19:46.391Z,6.50
2023-05-18T22:22:22.780Z,7.00
2023-05-18T22:24:56.366Z,6.45
2023-05-18T22:27:25.084Z,6.60
2023-05-18T22:29:52.349Z,6.07
2023-05-18T22:32:19.657Z,6.80
2023-05-18T22:34:48.020Z,7.50
2023-05-18T22:37:15.485Z,7.05
2023-05-18T22:39:43.799Z,6.90
2023-05-18T22:42:11.147Z,5.70
2023-05-18T22:44:38.472Z,6.47
2023-05-18T22:47:06.285Z,6.43
2023-05-18T22:49:35.921Z,7.38
2023-05-18T22:52:06.803Z,6.13
2023-05-18T22:54:34.267Z,6.18
2023-05-18T22:57:01.495Z,5.53
2023-05-18T22:59:29.990Z,6.45
2023-05-18T23:04:24.571Z,6.35
2023-05-18T23:06:51.963Z,6.75
2023-05-18T23:09:20.086Z,6.95
2023-05-18T23:11:48.642Z,6.95
2023-05-18T23:14:16.079Z,6.13
2023-05-18T23:16:43.548Z,6.82
2023-05-18T23:19:14.409Z,7.87
2023-05-18T23:21:41.915Z,6.03
2023-05-18T23:24:12.295Z,7.13
2023-05-18T23:26:43.542Z,6.55
2023-05-18T23:29:11.514Z,6.90
2023-05-18T23:31:38.935Z,6.30
2023-05-18T23:34:06.513Z,6.63
2023-05-18T23:36:35.276Z,6.03
2023-05-18T23:39:03.079Z,6.57
2023-05-18T23:41:32.132Z,6.28
2023-05-18T23:43:59.890Z,6.32
2023-05-18T23:46:27.739Z,7.28
2023-05-18T23:48:57.858Z,7.38
2023-05-18T23:51:29.693Z,6.85
2023-05-18T23:53:58.765Z,7.32
2023-05-18T23:56:26.497Z,7.05
2023-05-18T23:58:54.351Z,6.85
